Terminal Aerodrome Forecast
Issued by NWS Portland, ME

Home | Current Version | Previous Version | Text Only | Print | Product List | Glossary On
Versions: 1 2 3 4 5 6 7 8 9 10 11 12 13 14 15 16 17 18 19 20 21 22
000
FTUS41 KGYX 201248 AAA
TAFCON
TAF AMD
KCON 201248Z 2013/2112 21005KT 1/2SM FG OVC002
      TEMPO 2013/2014 1/4SM FG VV001
     FM201400 00000KT P6SM BKN050
     FM210000 18004KT 1SM BR BKN050 WS020/25030KT=

USA.gov is the U.S. government's official web portal to all federal, state and local government web resources and services.